sensor_id;sensor_type;location;lat;lon;timestamp;P1;durP1;ratioP1;P2;durP2;ratioP2
69161;SDS011;56269;51.738;21.652;2022-11-13T00:03:38;87.50;;;23.10;;
69161;SDS011;56269;51.738;21.652;2022-11-13T00:06:04;92.53;;;23.30;;
69161;SDS011;56269;51.738;21.652;2022-11-13T00:08:31;93.07;;;23.30;;
69161;SDS011;56269;51.738;21.652;2022-11-13T00:11:02;92.40;;;24.45;;
69161;SDS011;56269;51.738;21.652;2022-11-13T00:13:30;104.93;;;23.60;;
69161;SDS011;56269;51.738;21.652;2022-11-13T00:15:58;97.75;;;22.98;;
69161;SDS011;56269;51.738;21.652;2022-11-13T00:18:26;113.15;;;24.48;;
69161;SDS011;56269;51.738;21.652;2022-11-13T00:20:57;117.38;;;24.67;;
69161;SDS011;56269;51.738;21.652;2022-11-13T00:23:30;125.35;;;25.13;;
69161;SDS011;56269;51.738;21.652;2022-11-13T00:26:05;129.47;;;24.07;;
69161;SDS011;56269;51.738;21.652;2022-11-13T00:28:35;141.13;;;24.83;;
69161;SDS011;56269;51.738;21.652;2022-11-13T00:31:01;136.90;;;25.48;;
69161;SDS011;56269;51.738;21.652;2022-11-13T00:33:29;97.97;;;22.55;;
69161;SDS011;56269;51.738;21.652;2022-11-13T00:36:09;121.45;;;24.08;;
69161;SDS011;56269;51.738;21.652;2022-11-13T00:38:42;114.83;;;23.10;;
69161;SDS011;56269;51.738;21.652;2022-11-13T00:41:08;125.03;;;24.15;;
69161;SDS011;56269;51.738;21.652;2022-11-13T00:43:34;128.98;;;24.38;;
69161;SDS011;56269;51.738;21.652;2022-11-13T00:46:01;114.40;;;24.73;;
69161;SDS011;56269;51.738;21.652;2022-11-13T00:48:27;137.70;;;25.17;;
69161;SDS011;56269;51.738;21.652;2022-11-13T00:50:53;127.97;;;24.47;;
69161;SDS011;56269;51.738;21.652;2022-11-13T00:53:20;105.93;;;23.38;;
69161;SDS011;56269;51.738;21.652;2022-11-13T00:55:46;123.22;;;25.45;;
69161;SDS011;56269;51.738;21.652;2022-11-13T00:58:13;117.65;;;24.67;;
69161;SDS011;56269;51.738;21.652;2022-11-13T01:00:40;124.18;;;24.00;;
69161;SDS011;56269;51.738;21.652;2022-11-13T01:03:08;109.50;;;23.70;;
69161;SDS011;56269;51.738;21.652;2022-11-13T01:05:35;99.68;;;24.02;;
69161;SDS011;56269;51.738;21.652;2022-11-13T01:08:05;113.47;;;24.98;;
69161;SDS011;56269;51.738;21.652;2022-11-13T01:10:32;92.60;;;24.13;;
69161;SDS011;56269;51.738;21.652;2022-11-13T01:12:59;93.43;;;23.92;;
69161;SDS011;56269;51.738;21.652;2022-11-13T01:15:25;94.37;;;23.57;;
69161;SDS011;56269;51.738;21.652;2022-11-13T01:17:52;103.45;;;23.90;;
69161;SDS011;56269;51.738;21.652;2022-11-13T01:20:20;111.28;;;24.27;;
69161;SDS011;56269;51.738;21.652;2022-11-13T01:22:52;101.20;;;23.48;;
69161;SDS011;56269;51.738;21.652;2022-11-13T01:25:18;103.10;;;22.90;;
69161;SDS011;56269;51.738;21.652;2022-11-13T01:27:44;94.75;;;23.08;;
69161;SDS011;56269;51.738;21.652;2022-11-13T01:30:11;111.00;;;25.20;;
69161;SDS011;56269;51.738;21.652;2022-11-13T01:32:37;99.53;;;23.80;;
69161;SDS011;56269;51.738;21.652;2022-11-13T01:35:03;102.63;;;23.75;;
69161;SDS011;56269;51.738;21.652;2022-11-13T01:37:30;91.40;;;23.17;;
69161;SDS011;56269;51.738;21.652;2022-11-13T01:39:56;97.05;;;23.42;;
69161;SDS011;56269;51.738;21.652;2022-11-13T01:42:22;107.35;;;22.92;;
69161;SDS011;56269;51.738;21.652;2022-11-13T01:44:52;122.00;;;25.25;;
69161;SDS011;56269;51.738;21.652;2022-11-13T01:47:20;111.10;;;24.75;;
69161;SDS011;56269;51.738;21.652;2022-11-13T01:49:48;120.50;;;25.03;;
69161;SDS011;56269;51.738;21.652;2022-11-13T01:52:18;104.35;;;23.88;;
69161;SDS011;56269;51.738;21.652;2022-11-13T01:54:48;118.63;;;24.58;;
69161;SDS011;56269;51.738;21.652;2022-11-13T01:57:16;111.00;;;24.58;;
69161;SDS011;56269;51.738;21.652;2022-11-13T01:59:46;118.35;;;24.75;;
69161;SDS011;56269;51.738;21.652;2022-11-13T02:02:22;115.10;;;24.97;;
69161;SDS011;56269;51.738;21.652;2022-11-13T02:04:50;116.25;;;24.95;;
69161;SDS011;56269;51.738;21.652;2022-11-13T02:07:19;120.72;;;23.25;;
69161;SDS011;56269;51.738;21.652;2022-11-13T02:09:47;106.80;;;22.95;;
69161;SDS011;56269;51.738;21.652;2022-11-13T02:12:18;99.97;;;23.60;;
69161;SDS011;56269;51.738;21.652;2022-11-13T02:14:53;104.47;;;22.50;;
69161;SDS011;56269;51.738;21.652;2022-11-13T02:17:22;113.25;;;22.83;;
69161;SDS011;56269;51.738;21.652;2022-11-13T02:19:52;98.38;;;22.90;;
69161;SDS011;56269;51.738;21.652;2022-11-13T02:22:31;95.05;;;23.08;;
69161;SDS011;56269;51.738;21.652;2022-11-13T02:25:01;96.35;;;22.95;;
69161;SDS011;56269;51.738;21.652;2022-11-13T02:30:17;97.72;;;22.73;;
69161;SDS011;56269;51.738;21.652;2022-11-13T02:32:51;96.13;;;22.85;;
69161;SDS011;56269;51.738;21.652;2022-11-13T02:35:20;96.13;;;22.42;;
69161;SDS011;56269;51.738;21.652;2022-11-13T02:37:49;93.70;;;21.48;;
69161;SDS011;56269;51.738;21.652;2022-11-13T02:40:15;91.30;;;22.87;;
69161;SDS011;56269;51.738;21.652;2022-11-13T02:42:42;84.97;;;21.38;;
69161;SDS011;56269;51.738;21.652;2022-11-13T02:45:09;89.85;;;21.88;;
69161;SDS011;56269;51.738;21.652;2022-11-13T02:47:35;81.30;;;21.73;;
69161;SDS011;56269;51.738;21.652;2022-11-13T02:50:01;99.10;;;23.00;;
69161;SDS011;56269;51.738;21.652;2022-11-13T02:52:29;90.57;;;21.70;;
69161;SDS011;56269;51.738;21.652;2022-11-13T02:54:55;89.30;;;22.23;;
69161;SDS011;56269;51.738;21.652;2022-11-13T02:57:21;90.55;;;22.52;;
69161;SDS011;56269;51.738;21.652;2022-11-13T02:59:48;84.70;;;22.13;;
69161;SDS011;56269;51.738;21.652;2022-11-13T03:05:06;86.03;;;21.20;;
69161;SDS011;56269;51.738;21.652;2022-11-13T03:07:33;89.43;;;22.13;;
69161;SDS011;56269;51.738;21.652;2022-11-13T03:09:59;93.13;;;21.98;;
69161;SDS011;56269;51.738;21.652;2022-11-13T03:12:25;83.75;;;21.13;;
69161;SDS011;56269;51.738;21.652;2022-11-13T03:14:51;85.23;;;20.73;;
69161;SDS011;56269;51.738;21.652;2022-11-13T03:17:17;90.73;;;20.87;;
69161;SDS011;56269;51.738;21.652;2022-11-13T03:19:43;80.75;;;20.80;;
69161;SDS011;56269;51.738;21.652;2022-11-13T03:22:09;85.38;;;20.42;;
69161;SDS011;56269;51.738;21.652;2022-11-13T03:24:36;85.55;;;20.77;;
69161;SDS011;56269;51.738;21.652;2022-11-13T03:27:02;82.60;;;20.83;;
69161;SDS011;56269;51.738;21.652;2022-11-13T03:29:28;84.17;;;19.70;;
69161;SDS011;56269;51.738;21.652;2022-11-13T03:31:54;79.97;;;20.17;;
69161;SDS011;56269;51.738;21.652;2022-11-13T03:34:20;83.55;;;19.83;;
69161;SDS011;56269;51.738;21.652;2022-11-13T03:36:46;70.45;;;19.00;;
69161;SDS011;56269;51.738;21.652;2022-11-13T03:39:12;84.53;;;20.13;;
69161;SDS011;56269;51.738;21.652;2022-11-13T03:41:38;76.43;;;18.52;;
69161;SDS011;56269;51.738;21.652;2022-11-13T03:44:05;74.03;;;19.77;;
69161;SDS011;56269;51.738;21.652;2022-11-13T03:46:31;72.15;;;19.23;;
69161;SDS011;56269;51.738;21.652;2022-11-13T03:48:57;71.20;;;19.50;;
69161;SDS011;56269;51.738;21.652;2022-11-13T03:51:23;80.67;;;20.10;;
69161;SDS011;56269;51.738;21.652;2022-11-13T03:53:49;78.78;;;19.33;;
69161;SDS011;56269;51.738;21.652;2022-11-13T03:56:15;74.55;;;18.77;;
69161;SDS011;56269;51.738;21.652;2022-11-13T03:58:42;79.15;;;18.63;;
69161;SDS011;56269;51.738;21.652;2022-11-13T04:01:08;83.27;;;19.80;;
69161;SDS011;56269;51.738;21.652;2022-11-13T04:03:34;82.40;;;19.25;;
69161;SDS011;56269;51.738;21.652;2022-11-13T04:06:00;78.13;;;19.38;;
69161;SDS011;56269;51.738;21.652;2022-11-13T04:08:26;74.07;;;18.42;;
69161;SDS011;56269;51.738;21.652;2022-11-13T04:10:53;73.40;;;17.98;;
69161;SDS011;56269;51.738;21.652;2022-11-13T04:13:19;87.23;;;19.53;;
69161;SDS011;56269;51.738;21.652;2022-11-13T04:15:46;85.53;;;19.23;;
69161;SDS011;56269;51.738;21.652;2022-11-13T04:18:12;87.57;;;20.27;;
69161;SDS011;56269;51.738;21.652;2022-11-13T04:20:38;85.80;;;20.33;;
69161;SDS011;56269;51.738;21.652;2022-11-13T04:23:04;84.15;;;19.83;;
69161;SDS011;56269;51.738;21.652;2022-11-13T04:25:34;78.83;;;19.67;;
69161;SDS011;56269;51.738;21.652;2022-11-13T04:28:00;83.22;;;18.30;;
69161;SDS011;56269;51.738;21.652;2022-11-13T04:30:26;75.32;;;18.77;;
69161;SDS011;56269;51.738;21.652;2022-11-13T04:32:52;76.18;;;17.67;;
69161;SDS011;56269;51.738;21.652;2022-11-13T04:35:18;73.38;;;17.73;;
69161;SDS011;56269;51.738;21.652;2022-11-13T04:37:45;77.23;;;18.93;;
69161;SDS011;56269;51.738;21.652;2022-11-13T04:40:11;73.40;;;17.70;;
69161;SDS011;56269;51.738;21.652;2022-11-13T04:42:37;77.63;;;18.75;;
69161;SDS011;56269;51.738;21.652;2022-11-13T04:45:17;72.18;;;18.38;;
69161;SDS011;56269;51.738;21.652;2022-11-13T04:47:44;67.38;;;17.88;;
69161;SDS011;56269;51.738;21.652;2022-11-13T04:50:10;68.70;;;17.87;;
69161;SDS011;56269;51.738;21.652;2022-11-13T04:52:37;70.15;;;18.73;;
69161;SDS011;56269;51.738;21.652;2022-11-13T04:55:03;74.38;;;18.73;;
69161;SDS011;56269;51.738;21.652;2022-11-13T04:57:30;86.00;;;18.30;;
69161;SDS011;56269;51.738;21.652;2022-11-13T04:59:56;84.63;;;18.33;;
69161;SDS011;56269;51.738;21.652;2022-11-13T05:02:26;78.85;;;18.48;;
69161;SDS011;56269;51.738;21.652;2022-11-13T05:04:58;77.15;;;17.48;;
69161;SDS011;56269;51.738;21.652;2022-11-13T05:07:24;76.25;;;17.83;;
69161;SDS011;56269;51.738;21.652;2022-11-13T05:09:54;86.15;;;19.02;;
69161;SDS011;56269;51.738;21.652;2022-11-13T05:12:20;83.87;;;18.03;;
69161;SDS011;56269;51.738;21.652;2022-11-13T05:14:46;73.90;;;18.17;;
69161;SDS011;56269;51.738;21.652;2022-11-13T05:17:12;79.00;;;18.05;;
69161;SDS011;56269;51.738;21.652;2022-11-13T05:19:39;68.03;;;15.75;;
69161;SDS011;56269;51.738;21.652;2022-11-13T05:22:05;75.87;;;17.57;;
69161;SDS011;56269;51.738;21.652;2022-11-13T05:24:31;81.10;;;18.00;;
69161;SDS011;56269;51.738;21.652;2022-11-13T05:26:58;90.25;;;18.27;;
69161;SDS011;56269;51.738;21.652;2022-11-13T05:29:24;89.15;;;18.55;;
69161;SDS011;56269;51.738;21.652;2022-11-13T05:31:50;72.68;;;16.95;;
69161;SDS011;56269;51.738;21.652;2022-11-13T05:34:16;73.30;;;16.88;;
69161;SDS011;56269;51.738;21.652;2022-11-13T05:36:42;82.33;;;18.23;;
69161;SDS011;56269;51.738;21.652;2022-11-13T05:39:09;83.80;;;17.52;;
69161;SDS011;56269;51.738;21.652;2022-11-13T05:41:36;85.88;;;17.73;;
69161;SDS011;56269;51.738;21.652;2022-11-13T05:44:01;94.47;;;17.05;;
69161;SDS011;56269;51.738;21.652;2022-11-13T05:46:28;89.43;;;18.70;;
69161;SDS011;56269;51.738;21.652;2022-11-13T05:48:58;91.03;;;17.58;;
69161;SDS011;56269;51.738;21.652;2022-11-13T05:51:26;86.22;;;17.63;;
69161;SDS011;56269;51.738;21.652;2022-11-13T05:53:57;89.72;;;17.20;;
69161;SDS011;56269;51.738;21.652;2022-11-13T05:56:25;94.35;;;17.33;;
69161;SDS011;56269;51.738;21.652;2022-11-13T05:58:55;89.70;;;17.83;;
69161;SDS011;56269;51.738;21.652;2022-11-13T06:01:24;95.78;;;18.02;;
69161;SDS011;56269;51.738;21.652;2022-11-13T06:03:55;94.70;;;17.75;;
69161;SDS011;56269;51.738;21.652;2022-11-13T06:06:22;87.50;;;18.52;;
69161;SDS011;56269;51.738;21.652;2022-11-13T06:08:50;78.90;;;17.45;;
69161;SDS011;56269;51.738;21.652;2022-11-13T06:11:19;81.87;;;17.87;;
69161;SDS011;56269;51.738;21.652;2022-11-13T06:13:47;79.53;;;16.70;;
69161;SDS011;56269;51.738;21.652;2022-11-13T06:16:15;83.13;;;16.13;;
69161;SDS011;56269;51.738;21.652;2022-11-13T06:18:44;82.43;;;18.23;;
69161;SDS011;56269;51.738;21.652;2022-11-13T06:21:12;86.15;;;17.08;;
69161;SDS011;56269;51.738;21.652;2022-11-13T06:23:40;72.07;;;17.43;;
69161;SDS011;56269;51.738;21.652;2022-11-13T06:26:07;75.13;;;17.65;;
69161;SDS011;56269;51.738;21.652;2022-11-13T06:28:38;87.60;;;17.90;;
69161;SDS011;56269;51.738;21.652;2022-11-13T06:31:09;93.47;;;18.15;;
69161;SDS011;56269;51.738;21.652;2022-11-13T06:33:45;76.80;;;17.60;;
69161;SDS011;56269;51.738;21.652;2022-11-13T06:36:13;81.83;;;17.13;;
69161;SDS011;56269;51.738;21.652;2022-11-13T06:38:41;75.55;;;17.02;;
69161;SDS011;56269;51.738;21.652;2022-11-13T06:41:08;86.97;;;17.48;;
69161;SDS011;56269;51.738;21.652;2022-11-13T06:43:36;79.43;;;17.63;;
69161;SDS011;56269;51.738;21.652;2022-11-13T06:46:03;83.07;;;17.35;;
69161;SDS011;56269;51.738;21.652;2022-11-13T06:48:31;79.87;;;17.83;;
69161;SDS011;56269;51.738;21.652;2022-11-13T06:51:01;76.43;;;16.98;;
69161;SDS011;56269;51.738;21.652;2022-11-13T06:53:29;72.50;;;17.65;;
69161;SDS011;56269;51.738;21.652;2022-11-13T06:55:56;65.55;;;16.52;;
69161;SDS011;56269;51.738;21.652;2022-11-13T06:58:23;74.50;;;16.80;;
69161;SDS011;56269;51.738;21.652;2022-11-13T07:00:49;67.47;;;16.70;;
69161;SDS011;56269;51.738;21.652;2022-11-13T07:03:19;73.53;;;16.67;;
69161;SDS011;56269;51.738;21.652;2022-11-13T07:05:46;65.60;;;15.88;;
69161;SDS011;56269;51.738;21.652;2022-11-13T07:08:13;62.13;;;15.10;;
69161;SDS011;56269;51.738;21.652;2022-11-13T07:10:40;58.45;;;15.82;;
69161;SDS011;56269;51.738;21.652;2022-11-13T07:13:07;55.80;;;13.47;;
69161;SDS011;56269;51.738;21.652;2022-11-13T07:15:34;58.83;;;14.57;;
69161;SDS011;56269;51.738;21.652;2022-11-13T07:18:01;50.15;;;13.75;;
69161;SDS011;56269;51.738;21.652;2022-11-13T07:20:28;61.45;;;13.57;;
69161;SDS011;56269;51.738;21.652;2022-11-13T07:22:55;63.63;;;14.70;;
69161;SDS011;56269;51.738;21.652;2022-11-13T07:25:22;62.40;;;14.13;;
69161;SDS011;56269;51.738;21.652;2022-11-13T07:27:48;51.47;;;13.32;;
69161;SDS011;56269;51.738;21.652;2022-11-13T07:30:15;51.30;;;13.85;;
69161;SDS011;56269;51.738;21.652;2022-11-13T07:32:41;54.92;;;14.00;;
69161;SDS011;56269;51.738;21.652;2022-11-13T07:35:08;50.40;;;13.00;;
69161;SDS011;56269;51.738;21.652;2022-11-13T07:37:34;52.33;;;12.87;;
69161;SDS011;56269;51.738;21.652;2022-11-13T07:40:00;37.50;;;10.27;;
69161;SDS011;56269;51.738;21.652;2022-11-13T07:42:27;32.30;;;9.93;;
69161;SDS011;56269;51.738;21.652;2022-11-13T07:44:53;39.40;;;10.90;;
69161;SDS011;56269;51.738;21.652;2022-11-13T07:47:19;41.78;;;11.73;;
69161;SDS011;56269;51.738;21.652;2022-11-13T07:49:46;38.73;;;10.93;;
69161;SDS011;56269;51.738;21.652;2022-11-13T07:52:12;37.53;;;10.15;;
69161;SDS011;56269;51.738;21.652;2022-11-13T07:54:38;35.17;;;9.70;;
69161;SDS011;56269;51.738;21.652;2022-11-13T07:57:04;37.10;;;9.82;;
69161;SDS011;56269;51.738;21.652;2022-11-13T07:59:31;37.20;;;10.18;;
69161;SDS011;56269;51.738;21.652;2022-11-13T08:01:57;38.03;;;10.30;;
69161;SDS011;56269;51.738;21.652;2022-11-13T08:04:24;34.25;;;9.32;;
69161;SDS011;56269;51.738;21.652;2022-11-13T08:06:50;35.13;;;9.18;;
69161;SDS011;56269;51.738;21.652;2022-11-13T08:09:16;38.20;;;10.55;;
69161;SDS011;56269;51.738;21.652;2022-11-13T08:11:42;42.92;;;10.88;;
69161;SDS011;56269;51.738;21.652;2022-11-13T08:14:09;31.60;;;9.67;;
69161;SDS011;56269;51.738;21.652;2022-11-13T08:16:35;35.72;;;9.90;;
69161;SDS011;56269;51.738;21.652;2022-11-13T08:19:02;37.63;;;9.88;;
69161;SDS011;56269;51.738;21.652;2022-11-13T08:21:28;37.17;;;9.23;;
69161;SDS011;56269;51.738;21.652;2022-11-13T08:23:55;32.50;;;8.50;;
69161;SDS011;56269;51.738;21.652;2022-11-13T08:26:21;30.63;;;8.33;;
69161;SDS011;56269;51.738;21.652;2022-11-13T08:28:47;30.95;;;8.48;;
69161;SDS011;56269;51.738;21.652;2022-11-13T08:31:14;24.42;;;7.85;;
69161;SDS011;56269;51.738;21.652;2022-11-13T08:33:41;25.23;;;7.60;;
69161;SDS011;56269;51.738;21.652;2022-11-13T08:36:08;27.63;;;8.20;;
69161;SDS011;56269;51.738;21.652;2022-11-13T08:38:35;24.80;;;7.53;;
69161;SDS011;56269;51.738;21.652;2022-11-13T08:41:02;20.60;;;6.57;;
69161;SDS011;56269;51.738;21.652;2022-11-13T08:43:30;18.60;;;6.20;;
69161;SDS011;56269;51.738;21.652;2022-11-13T08:45:56;25.55;;;8.30;;
69161;SDS011;56269;51.738;21.652;2022-11-13T08:48:23;21.90;;;6.83;;
69161;SDS011;56269;51.738;21.652;2022-11-13T08:50:50;18.60;;;5.40;;
69161;SDS011;56269;51.738;21.652;2022-11-13T08:53:17;22.65;;;7.25;;
69161;SDS011;56269;51.738;21.652;2022-11-13T08:55:44;21.13;;;7.00;;
69161;SDS011;56269;51.738;21.652;2022-11-13T08:58:10;24.58;;;8.52;;
69161;SDS011;56269;51.738;21.652;2022-11-13T09:00:37;19.20;;;6.57;;
69161;SDS011;56269;51.738;21.652;2022-11-13T09:03:03;22.05;;;7.35;;
69161;SDS011;56269;51.738;21.652;2022-11-13T09:05:29;23.95;;;6.68;;
69161;SDS011;56269;51.738;21.652;2022-11-13T09:07:56;26.42;;;7.95;;
69161;SDS011;56269;51.738;21.652;2022-11-13T09:10:23;16.85;;;5.78;;
69161;SDS011;56269;51.738;21.652;2022-11-13T09:12:57;18.23;;;5.73;;
69161;SDS011;56269;51.738;21.652;2022-11-13T09:15:24;17.50;;;6.20;;
69161;SDS011;56269;51.738;21.652;2022-11-13T09:17:50;16.27;;;5.70;;
69161;SDS011;56269;51.738;21.652;2022-11-13T09:20:17;16.63;;;5.07;;
69161;SDS011;56269;51.738;21.652;2022-11-13T09:22:43;14.68;;;5.30;;
69161;SDS011;56269;51.738;21.652;2022-11-13T09:25:09;20.20;;;7.03;;
69161;SDS011;56269;51.738;21.652;2022-11-13T09:27:35;29.13;;;8.80;;
69161;SDS011;56269;51.738;21.652;2022-11-13T09:30:01;21.45;;;6.65;;
69161;SDS011;56269;51.738;21.652;2022-11-13T09:32:28;13.85;;;5.03;;
69161;SDS011;56269;51.738;21.652;2022-11-13T09:34:54;20.20;;;7.47;;
69161;SDS011;56269;51.738;21.652;2022-11-13T09:37:20;17.13;;;6.37;;
69161;SDS011;56269;51.738;21.652;2022-11-13T09:39:46;17.20;;;6.10;;
69161;SDS011;56269;51.738;21.652;2022-11-13T09:42:14;17.48;;;5.70;;
69161;SDS011;56269;51.738;21.652;2022-11-13T09:44:47;12.93;;;4.57;;
69161;SDS011;56269;51.738;21.652;2022-11-13T09:49:55;14.25;;;4.53;;
69161;SDS011;56269;51.738;21.652;2022-11-13T09:52:30;12.60;;;4.60;;
69161;SDS011;56269;51.738;21.652;2022-11-13T09:55:00;12.95;;;4.53;;
69161;SDS011;56269;51.738;21.652;2022-11-13T09:57:33;11.98;;;4.65;;
69161;SDS011;56269;51.738;21.652;2022-11-13T10:00:10;13.43;;;4.67;;
69161;SDS011;56269;51.738;21.652;2022-11-13T10:02:52;13.45;;;5.15;;
69161;SDS011;56269;51.738;21.652;2022-11-13T10:06:22;13.73;;;5.03;;
69161;SDS011;56269;51.738;21.652;2022-11-13T10:08:59;13.48;;;4.90;;
69161;SDS011;56269;51.738;21.652;2022-11-13T10:14:02;15.90;;;5.43;;
69161;SDS011;56269;51.738;21.652;2022-11-13T10:19:09;11.90;;;4.78;;
69161;SDS011;56269;51.738;21.652;2022-11-13T10:21:44;14.27;;;5.15;;
69161;SDS011;56269;51.738;21.652;2022-11-13T10:27:04;14.97;;;5.67;;
69161;SDS011;56269;51.738;21.652;2022-11-13T10:29:33;36.97;;;12.55;;
69161;SDS011;56269;51.738;21.652;2022-11-13T10:32:12;32.92;;;10.43;;
69161;SDS011;56269;51.738;21.652;2022-11-13T10:35:18;46.30;;;14.45;;
69161;SDS011;56269;51.738;21.652;2022-11-13T10:38:05;21.83;;;7.35;;
69161;SDS011;56269;51.738;21.652;2022-11-13T10:40:40;21.40;;;7.33;;
69161;SDS011;56269;51.738;21.652;2022-11-13T10:43:12;19.33;;;6.60;;
69161;SDS011;56269;51.738;21.652;2022-11-13T10:45:57;20.15;;;7.45;;
69161;SDS011;56269;51.738;21.652;2022-11-13T10:48:30;20.45;;;6.95;;
69161;SDS011;56269;51.738;21.652;2022-11-13T10:50:59;18.00;;;6.97;;
69161;SDS011;56269;51.738;21.652;2022-11-13T10:53:26;20.83;;;7.43;;
69161;SDS011;56269;51.738;21.652;2022-11-13T10:55:58;17.23;;;6.53;;
69161;SDS011;56269;51.738;21.652;2022-11-13T10:58:25;15.27;;;6.10;;
69161;SDS011;56269;51.738;21.652;2022-11-13T11:00:51;16.67;;;6.13;;
69161;SDS011;56269;51.738;21.652;2022-11-13T11:05:56;13.90;;;6.13;;
69161;SDS011;56269;51.738;21.652;2022-11-13T11:08:28;15.15;;;5.63;;
69161;SDS011;56269;51.738;21.652;2022-11-13T11:11:06;15.98;;;6.43;;
69161;SDS011;56269;51.738;21.652;2022-11-13T11:14:03;17.25;;;6.40;;
69161;SDS011;56269;51.738;21.652;2022-11-13T11:16:43;14.45;;;5.90;;
69161;SDS011;56269;51.738;21.652;2022-11-13T11:19:11;15.13;;;5.87;;
69161;SDS011;56269;51.738;21.652;2022-11-13T11:21:40;14.02;;;5.55;;
69161;SDS011;56269;51.738;21.652;2022-11-13T11:24:10;17.25;;;5.68;;
69161;SDS011;56269;51.738;21.652;2022-11-13T11:26:42;14.48;;;5.82;;
69161;SDS011;56269;51.738;21.652;2022-11-13T11:29:34;16.77;;;6.03;;
69161;SDS011;56269;51.738;21.652;2022-11-13T11:32:12;16.17;;;6.30;;
69161;SDS011;56269;51.738;21.652;2022-11-13T11:34:45;16.42;;;6.40;;
69161;SDS011;56269;51.738;21.652;2022-11-13T11:37:16;15.77;;;6.15;;
69161;SDS011;56269;51.738;21.652;2022-11-13T11:39:56;16.58;;;6.55;;
69161;SDS011;56269;51.738;21.652;2022-11-13T11:42:46;16.80;;;6.10;;
69161;SDS011;56269;51.738;21.652;2022-11-13T11:45:22;18.97;;;6.20;;
69161;SDS011;56269;51.738;21.652;2022-11-13T11:47:57;17.35;;;6.03;;
69161;SDS011;56269;51.738;21.652;2022-11-13T12:04:26;21.83;;;9.77;;
69161;SDS011;56269;51.738;21.652;2022-11-13T12:09:39;15.95;;;6.07;;
69161;SDS011;56269;51.738;21.652;2022-11-13T12:14:58;16.67;;;6.45;;
69161;SDS011;56269;51.738;21.652;2022-11-13T12:25:52;22.00;;;7.90;;
69161;SDS011;56269;51.738;21.652;2022-11-13T12:28:43;16.48;;;6.68;;
69161;SDS011;56269;51.738;21.652;2022-11-13T12:34:28;19.13;;;7.25;;
69161;SDS011;56269;51.738;21.652;2022-11-13T12:37:21;20.65;;;7.15;;
69161;SDS011;56269;51.738;21.652;2022-11-13T12:40:01;18.53;;;7.03;;
69161;SDS011;56269;51.738;21.652;2022-11-13T12:42:38;19.58;;;7.30;;
69161;SDS011;56269;51.738;21.652;2022-11-13T12:45:13;23.42;;;8.10;;
69161;SDS011;56269;51.738;21.652;2022-11-13T12:48:06;17.55;;;7.20;;
69161;SDS011;56269;51.738;21.652;2022-11-13T12:50:33;20.10;;;7.72;;
69161;SDS011;56269;51.738;21.652;2022-11-13T12:53:01;19.17;;;7.57;;
69161;SDS011;56269;51.738;21.652;2022-11-13T12:55:35;21.27;;;7.93;;
69161;SDS011;56269;51.738;21.652;2022-11-13T12:58:05;19.70;;;8.18;;
69161;SDS011;56269;51.738;21.652;2022-11-13T13:00:52;18.95;;;7.75;;
69161;SDS011;56269;51.738;21.652;2022-11-13T13:15:19;20.23;;;8.70;;
69161;SDS011;56269;51.738;21.652;2022-11-13T13:20:59;20.87;;;9.37;;
69161;SDS011;56269;51.738;21.652;2022-11-13T13:23:31;21.30;;;8.73;;
69161;SDS011;56269;51.738;21.652;2022-11-13T13:26:00;21.27;;;9.13;;
69161;SDS011;56269;51.738;21.652;2022-11-13T13:28:31;19.33;;;8.05;;
69161;SDS011;56269;51.738;21.652;2022-11-13T13:31:05;20.40;;;8.13;;
69161;SDS011;56269;51.738;21.652;2022-11-13T13:33:50;20.70;;;8.20;;
69161;SDS011;56269;51.738;21.652;2022-11-13T13:39:31;22.25;;;9.25;;
69161;SDS011;56269;51.738;21.652;2022-11-13T13:42:12;20.90;;;8.10;;
69161;SDS011;56269;51.738;21.652;2022-11-13T13:44:49;20.58;;;8.25;;
69161;SDS011;56269;51.738;21.652;2022-11-13T13:47:28;22.13;;;8.77;;
69161;SDS011;56269;51.738;21.652;2022-11-13T13:49:58;22.25;;;8.25;;
69161;SDS011;56269;51.738;21.652;2022-11-13T13:52:26;22.27;;;8.52;;
69161;SDS011;56269;51.738;21.652;2022-11-13T13:54:55;22.83;;;8.80;;
69161;SDS011;56269;51.738;21.652;2022-11-13T13:57:22;21.33;;;8.52;;
69161;SDS011;56269;51.738;21.652;2022-11-13T13:59:48;23.07;;;8.80;;
69161;SDS011;56269;51.738;21.652;2022-11-13T14:02:20;23.02;;;8.60;;
69161;SDS011;56269;51.738;21.652;2022-11-13T14:04:51;21.73;;;8.75;;
69161;SDS011;56269;51.738;21.652;2022-11-13T14:07:20;23.65;;;8.90;;
69161;SDS011;56269;51.738;21.652;2022-11-13T14:09:48;22.35;;;9.07;;
69161;SDS011;56269;51.738;21.652;2022-11-13T14:12:19;21.20;;;8.70;;
69161;SDS011;56269;51.738;21.652;2022-11-13T14:14:46;20.25;;;8.70;;
69161;SDS011;56269;51.738;21.652;2022-11-13T14:17:20;22.48;;;9.90;;
69161;SDS011;56269;51.738;21.652;2022-11-13T14:19:53;21.23;;;8.98;;
69161;SDS011;56269;51.738;21.652;2022-11-13T14:22:21;25.30;;;11.32;;
69161;SDS011;56269;51.738;21.652;2022-11-13T14:24:52;27.13;;;12.40;;
69161;SDS011;56269;51.738;21.652;2022-11-13T14:27:23;31.45;;;15.00;;
69161;SDS011;56269;51.738;21.652;2022-11-13T14:29:54;33.60;;;14.02;;
69161;SDS011;56269;51.738;21.652;2022-11-13T14:32:29;34.60;;;16.17;;
69161;SDS011;56269;51.738;21.652;2022-11-13T14:34:59;35.90;;;16.35;;
69161;SDS011;56269;51.738;21.652;2022-11-13T14:37:37;52.53;;;19.47;;
69161;SDS011;56269;51.738;21.652;2022-11-13T14:40:09;53.22;;;20.23;;
69161;SDS011;56269;51.738;21.652;2022-11-13T14:42:45;31.42;;;12.55;;
69161;SDS011;56269;51.738;21.652;2022-11-13T14:45:14;33.42;;;12.65;;
69161;SDS011;56269;51.738;21.652;2022-11-13T14:50:47;34.23;;;13.40;;
69161;SDS011;56269;51.738;21.652;2022-11-13T14:53:26;38.53;;;13.90;;
69161;SDS011;56269;51.738;21.652;2022-11-13T14:56:04;31.50;;;12.25;;
69161;SDS011;56269;51.738;21.652;2022-11-13T14:58:35;35.22;;;12.18;;
69161;SDS011;56269;51.738;21.652;2022-11-13T15:01:16;25.95;;;9.60;;
69161;SDS011;56269;51.738;21.652;2022-11-13T15:03:44;27.20;;;9.47;;
69161;SDS011;56269;51.738;21.652;2022-11-13T15:06:16;21.67;;;9.05;;
69161;SDS011;56269;51.738;21.652;2022-11-13T15:08:46;26.25;;;9.45;;
69161;SDS011;56269;51.738;21.652;2022-11-13T15:11:14;27.02;;;9.45;;
69161;SDS011;56269;51.738;21.652;2022-11-13T15:13:41;27.98;;;9.25;;
69161;SDS011;56269;51.738;21.652;2022-11-13T15:16:41;28.00;;;9.83;;
69161;SDS011;56269;51.738;21.652;2022-11-13T15:19:12;30.20;;;10.77;;
69161;SDS011;56269;51.738;21.652;2022-11-13T15:21:43;29.60;;;10.55;;
69161;SDS011;56269;51.738;21.652;2022-11-13T15:24:11;31.95;;;10.18;;
69161;SDS011;56269;51.738;21.652;2022-11-13T15:26:38;29.42;;;10.18;;
69161;SDS011;56269;51.738;21.652;2022-11-13T15:29:05;39.37;;;13.10;;
69161;SDS011;56269;51.738;21.652;2022-11-13T15:31:33;37.05;;;13.25;;
69161;SDS011;56269;51.738;21.652;2022-11-13T15:34:00;34.40;;;12.75;;
69161;SDS011;56269;51.738;21.652;2022-11-13T15:36:27;38.83;;;12.18;;
69161;SDS011;56269;51.738;21.652;2022-11-13T15:38:53;36.60;;;13.63;;